createdAt,value
2018-09-07T00:00:40.920Z,17.90
2018-09-07T00:03:08.062Z,17.40
2018-09-07T00:05:35.224Z,18.03
2018-09-07T00:08:02.344Z,19.03
2018-09-07T00:10:33.331Z,19.23
2018-09-07T00:13:00.511Z,19.60
2018-09-07T00:15:27.659Z,20.37
2018-09-07T00:17:54.775Z,20.33
2018-09-07T00:20:21.922Z,18.80
2018-09-07T00:22:49.101Z,20.50
2018-09-07T00:25:16.271Z,19.70
2018-09-07T00:27:43.372Z,19.20
2018-09-07T00:30:10.541Z,19.17
2018-09-07T00:32:37.677Z,18.67
2018-09-07T00:35:05.419Z,19.70
2018-09-07T00:37:32.628Z,20.23
2018-09-07T00:40:00.652Z,20.60
2018-09-07T00:42:28.206Z,21.53
2018-09-07T00:44:55.930Z,21.93
2018-09-07T00:47:23.196Z,20.90
2018-09-07T00:49:50.432Z,22.73
2018-09-07T00:52:17.606Z,19.50
2018-09-07T00:54:44.735Z,21.40
2018-09-07T00:57:11.869Z,22.17
2018-09-07T00:59:39.602Z,24.27
2018-09-07T01:02:06.995Z,24.60
2018-09-07T01:04:34.143Z,25.63
2018-09-07T01:07:01.291Z,23.90
2018-09-07T01:09:28.445Z,25.70
2018-09-07T01:11:55.618Z,24.43
2018-09-07T01:14:22.739Z,23.43
2018-09-07T01:16:49.888Z,23.27
2018-09-07T01:19:17.055Z,21.40
2018-09-07T01:21:44.907Z,20.53
2018-09-07T01:24:12.050Z,19.40
2018-09-07T01:26:39.213Z,20.30
2018-09-07T01:29:06.385Z,19.20
2018-09-07T01:31:33.521Z,19.20
2018-09-07T01:34:00.661Z,19.10
2018-09-07T01:36:27.787Z,20.37
2018-09-07T01:38:54.944Z,19.53
2018-09-07T01:41:22.155Z,20.53
2018-09-07T01:43:49.747Z,20.80
2018-09-07T01:46:17.183Z,19.20
2018-09-07T01:48:44.411Z,19.87
2018-09-07T01:51:11.545Z,20.10
2018-09-07T01:53:38.730Z,20.20
2018-09-07T01:56:05.857Z,20.93
2018-09-07T01:58:33.678Z,21.57
2018-09-07T02:01:00.809Z,21.93
2018-09-07T02:03:29.530Z,20.83
2018-09-07T02:05:56.958Z,21.10
2018-09-07T02:08:25.482Z,21.90
2018-09-07T02:10:54.410Z,24.10
2018-09-07T02:13:22.102Z,23.70
2018-09-07T02:15:49.258Z,22.83
2018-09-07T02:18:16.886Z,23.30
2018-09-07T02:20:44.118Z,21.57
2018-09-07T02:23:11.292Z,21.87
2018-09-07T02:25:38.529Z,22.53
2018-09-07T02:28:05.890Z,23.07
2018-09-07T02:30:33.049Z,23.43
2018-09-07T02:33:00.151Z,22.87
2018-09-07T02:35:27.429Z,20.90
2018-09-07T02:37:54.582Z,20.70
2018-09-07T02:40:21.913Z,21.67
2018-09-07T02:42:49.031Z,21.33
2018-09-07T02:45:16.342Z,21.27
2018-09-07T02:47:43.483Z,21.30
2018-09-07T02:50:10.657Z,19.33
2018-09-07T02:52:37.769Z,20.70
2018-09-07T02:55:05.132Z,19.43
2018-09-07T02:57:32.250Z,19.87
2018-09-07T02:59:59.366Z,20.03
2018-09-07T03:02:26.495Z,20.10
2018-09-07T03:04:53.687Z,19.00
2018-09-07T03:07:20.825Z,20.53
2018-09-07T03:09:47.934Z,18.80
2018-09-07T03:12:15.124Z,18.90
2018-09-07T03:14:42.237Z,18.63
2018-09-07T03:17:09.393Z,20.30
2018-09-07T03:19:36.497Z,19.47
2018-09-07T03:22:04.342Z,20.10
2018-09-07T03:24:31.458Z,18.40
2018-09-07T03:26:58.617Z,19.10
2018-09-07T03:29:25.765Z,19.67
2018-09-07T03:31:52.958Z,18.90
2018-09-07T03:34:20.062Z,20.90
2018-09-07T03:36:47.214Z,17.33
2018-09-07T03:39:14.360Z,19.00
2018-09-07T03:41:41.561Z,19.73
2018-09-07T03:44:08.718Z,19.60
2018-09-07T03:46:36.015Z,18.80
2018-09-07T03:49:03.141Z,20.90
2018-09-07T03:51:30.275Z,20.67
2018-09-07T03:53:57.416Z,20.70
2018-09-07T03:56:24.555Z,21.20
2018-09-07T03:58:51.748Z,21.00
2018-09-07T04:01:18.858Z,19.97
2018-09-07T04:03:45.966Z,20.90
2018-09-07T04:06:13.238Z,21.07
2018-09-07T04:08:40.466Z,21.50
2018-09-07T04:11:07.617Z,20.40
2018-09-07T04:13:34.814Z,20.43
2018-09-07T04:16:02.618Z,20.23
2018-09-07T04:18:29.861Z,20.43
2018-09-07T04:20:57.063Z,20.77
2018-09-07T04:23:31.329Z,21.83
2018-09-07T04:25:58.713Z,19.53
2018-09-07T04:28:25.937Z,19.20
2018-09-07T04:30:53.036Z,19.70
2018-09-07T04:33:20.190Z,18.60
2018-09-07T04:35:47.360Z,17.80
2018-09-07T04:38:14.543Z,19.33
2018-09-07T04:40:41.781Z,18.83
2018-09-07T04:43:08.909Z,18.40
2018-09-07T04:45:36.064Z,17.63
2018-09-07T04:48:03.338Z,18.50
2018-09-07T04:50:30.538Z,17.90
2018-09-07T04:52:57.682Z,17.03
2018-09-07T04:55:24.838Z,18.50
2018-09-07T04:57:52.858Z,17.63
2018-09-07T05:00:20.051Z,17.90
2018-09-07T05:02:47.210Z,16.47
2018-09-07T05:05:14.558Z,17.47
2018-09-07T05:07:41.769Z,17.40
2018-09-07T05:10:08.910Z,17.43
2018-09-07T05:12:36.083Z,16.67
2018-09-07T05:15:03.416Z,15.90
2018-09-07T05:17:30.561Z,17.07
2018-09-07T05:19:58.749Z,17.63
2018-09-07T05:22:26.592Z,17.23
2018-09-07T05:24:53.725Z,17.03
2018-09-07T05:27:20.853Z,16.17
2018-09-07T05:29:47.950Z,17.93
2018-09-07T05:32:15.178Z,15.73
2018-09-07T05:34:42.426Z,15.40
2018-09-07T05:37:09.706Z,15.60
2018-09-07T05:39:36.854Z,14.90
2018-09-07T05:42:04.080Z,14.50
2018-09-07T05:44:31.227Z,14.50
2018-09-07T05:46:58.393Z,14.00
2018-09-07T05:49:25.523Z,15.10
2018-09-07T05:51:52.681Z,13.77
2018-09-07T05:54:19.897Z,14.00
2018-09-07T05:56:47.039Z,16.20
2018-09-07T05:59:14.225Z,15.50
2018-09-07T06:01:41.348Z,15.10
2018-09-07T06:04:08.493Z,14.30
2018-09-07T06:06:35.794Z,13.37
2018-09-07T06:09:03.991Z,14.37
2018-09-07T06:11:31.258Z,13.13
2018-09-07T06:13:58.454Z,13.73
2018-09-07T06:16:26.963Z,13.37
2018-09-07T06:18:54.138Z,13.00
2018-09-07T06:21:21.792Z,13.77
2018-09-07T06:23:49.882Z,13.10
2018-09-07T06:26:17.143Z,13.03
2018-09-07T06:28:44.459Z,13.30
2018-09-07T06:31:11.706Z,13.83
2018-09-07T06:33:38.932Z,14.70
2018-09-07T06:36:06.133Z,14.00
2018-09-07T06:38:33.346Z,15.10
2018-09-07T06:41:01.747Z,15.73
2018-09-07T06:43:28.968Z,14.80
2018-09-07T06:45:56.450Z,16.07
2018-09-07T06:48:23.850Z,14.77
2018-09-07T06:50:50.991Z,15.67
2018-09-07T06:53:18.125Z,15.20
2018-09-07T06:55:45.310Z,15.13
2018-09-07T06:58:12.508Z,15.93
2018-09-07T07:00:39.717Z,16.40
2018-09-07T07:03:07.211Z,16.00
2018-09-07T07:05:34.384Z,17.37
2018-09-07T07:08:01.600Z,16.70
2018-09-07T07:10:28.947Z,18.63
2018-09-07T07:12:56.190Z,19.30
2018-09-07T07:15:25.215Z,20.67
2018-09-07T07:17:52.512Z,21.83
2018-09-07T07:20:21.205Z,23.27
2018-09-07T07:22:48.413Z,23.73
2018-09-07T07:25:15.614Z,25.50
2018-09-07T07:27:42.854Z,25.10
2018-09-07T07:30:10.452Z,26.50
2018-09-07T07:32:37.741Z,25.43
2018-09-07T07:35:05.120Z,29.57
2018-09-07T07:37:32.335Z,32.00
2018-09-07T07:39:59.585Z,32.27
2018-09-07T07:42:26.828Z,32.43
2018-09-07T07:44:54.240Z,33.27
2018-09-07T07:47:21.461Z,31.30
2018-09-07T07:49:48.743Z,31.23
2018-09-07T07:52:16.093Z,32.17
2018-09-07T07:54:43.366Z,32.60
2018-09-07T07:57:10.660Z,29.40
2018-09-07T07:59:39.356Z,32.83
2018-09-07T08:02:06.535Z,28.57
2018-09-07T08:04:33.754Z,30.23
2018-09-07T08:07:00.999Z,26.13
2018-09-07T08:09:28.397Z,25.90
2018-09-07T08:11:56.358Z,24.73
2018-09-07T08:14:23.534Z,23.77
2018-09-07T08:16:50.865Z,23.40
2018-09-07T08:19:18.076Z,20.80
2018-09-07T08:21:45.949Z,20.80
2018-09-07T08:24:13.206Z,19.60
2018-09-07T08:26:40.371Z,18.53
2018-09-07T08:29:07.683Z,16.50
2018-09-07T08:31:34.844Z,14.57
2018-09-07T08:34:02.047Z,15.30
2018-09-07T08:36:29.202Z,14.70
2018-09-07T08:38:56.534Z,16.07
2018-09-07T08:41:23.825Z,16.20
2018-09-07T08:43:50.975Z,13.80
2018-09-07T08:46:18.163Z,13.43
2018-09-07T08:48:45.496Z,11.70
2018-09-07T08:51:12.546Z,11.30
2018-09-07T08:53:39.758Z,9.33
2018-09-07T08:56:06.959Z,8.83
2018-09-07T08:58:34.142Z,8.03
2018-09-07T09:01:01.328Z,7.90
2018-09-07T09:03:28.577Z,8.33
2018-09-07T09:05:55.761Z,7.53
2018-09-07T09:08:22.955Z,6.83
2018-09-07T09:10:50.150Z,7.57
2018-09-07T09:13:17.382Z,7.13
2018-09-07T09:15:44.529Z,7.40
2018-09-07T09:18:11.688Z,7.47
2018-09-07T09:20:39.172Z,6.80
2018-09-07T09:23:06.730Z,5.80
2018-09-07T09:25:34.324Z,6.47
2018-09-07T09:28:01.733Z,6.07
2018-09-07T09:30:28.932Z,6.43
2018-09-07T09:32:56.732Z,6.43
2018-09-07T09:35:23.926Z,6.40
2018-09-07T09:37:51.130Z,6.83
2018-09-07T09:40:18.302Z,5.63
2018-09-07T09:42:45.417Z,6.70
2018-09-07T09:45:12.620Z,6.60
2018-09-07T09:47:39.769Z,6.90
2018-09-07T09:50:07.031Z,5.50
2018-09-07T09:52:34.149Z,5.00
2018-09-07T09:55:05.181Z,5.40
2018-09-07T09:57:32.454Z,4.80
2018-09-07T09:59:59.765Z,5.00
2018-09-07T10:02:33.217Z,4.50
2018-09-07T10:05:00.503Z,4.90
2018-09-07T10:07:27.697Z,4.57
2018-09-07T10:09:54.966Z,4.77
2018-09-07T10:12:22.136Z,4.63
2018-09-07T10:14:49.618Z,4.80
2018-09-07T10:17:17.599Z,4.17
2018-09-07T10:19:45.174Z,4.30
2018-09-07T10:22:12.908Z,4.70
2018-09-07T10:24:40.127Z,5.30
2018-09-07T10:27:07.838Z,4.80
2018-09-07T10:29:34.991Z,4.70
2018-09-07T10:32:02.355Z,4.53
2018-09-07T10:34:29.599Z,4.53
2018-09-07T10:36:56.793Z,4.97
2018-09-07T10:39:24.138Z,4.80
2018-09-07T10:41:51.350Z,5.30
2018-09-07T10:44:18.672Z,5.77
2018-09-07T10:46:45.843Z,4.67
2018-09-07T10:49:13.053Z,5.00
2018-09-07T10:51:40.266Z,4.47
2018-09-07T10:54:07.440Z,4.10
2018-09-07T10:59:08.700Z,4.60
2018-09-07T11:01:35.814Z,5.30
2018-09-07T11:04:03.082Z,5.70
2018-09-07T11:06:30.232Z,5.10
2018-09-07T11:08:57.555Z,4.73
2018-09-07T11:11:24.801Z,3.93
2018-09-07T11:13:52.817Z,4.70
2018-09-07T11:16:19.973Z,4.63
2018-09-07T11:18:47.731Z,3.87
2018-09-07T11:21:15.473Z,4.30
2018-09-07T11:23:42.723Z,3.93
2018-09-07T11:26:10.514Z,4.23
2018-09-07T11:28:38.438Z,4.10
2018-09-07T11:31:05.644Z,4.43
2018-09-07T11:33:32.893Z,4.53
2018-09-07T11:36:00.167Z,3.30
2018-09-07T11:38:27.544Z,3.30
2018-09-07T11:40:55.001Z,3.20
2018-09-07T11:43:24.708Z,2.57
2018-09-07T11:45:51.887Z,3.10
2018-09-07T11:48:19.936Z,3.20
2018-09-07T11:50:47.819Z,3.00
2018-09-07T11:53:15.168Z,2.87
2018-09-07T11:55:42.414Z,3.10
2018-09-07T11:58:09.687Z,2.87
2018-09-07T12:00:36.764Z,3.10
2018-09-07T12:03:04.050Z,2.83
2018-09-07T12:05:31.207Z,3.50
2018-09-07T12:07:58.430Z,2.90
2018-09-07T12:10:25.549Z,2.83
2018-09-07T12:12:52.847Z,2.77
2018-09-07T12:15:19.857Z,3.10
2018-09-07T12:17:47.150Z,3.03
2018-09-07T12:20:14.287Z,2.00
2018-09-07T12:22:41.814Z,1.80
2018-09-07T12:25:09.004Z,1.90
2018-09-07T12:27:36.115Z,2.50
2018-09-07T12:30:03.260Z,2.23
2018-09-07T12:32:30.476Z,2.00
2018-09-07T12:34:57.612Z,2.10
2018-09-07T12:37:24.849Z,2.20
2018-09-07T12:39:52.474Z,2.10
2018-09-07T12:42:20.482Z,2.37
2018-09-07T12:44:47.646Z,3.07
2018-09-07T12:47:16.178Z,2.07
2018-09-07T12:49:44.150Z,2.03
2018-09-07T12:52:11.366Z,1.70
2018-09-07T12:54:38.506Z,1.70
2018-09-07T12:57:05.653Z,2.03
2018-09-07T12:59:32.848Z,1.90
2018-09-07T13:01:59.967Z,1.97
2018-09-07T13:04:27.568Z,2.70
2018-09-07T13:06:54.769Z,2.33
2018-09-07T13:09:21.937Z,2.60
2018-09-07T13:11:49.052Z,3.07
2018-09-07T13:14:16.207Z,2.47
2018-09-07T13:16:43.688Z,3.13
2018-09-07T13:19:10.942Z,2.70
2018-09-07T13:21:38.334Z,2.77
2018-09-07T13:24:06.808Z,2.93
2018-09-07T13:26:34.652Z,2.03
2018-09-07T13:29:01.941Z,2.63
2018-09-07T13:31:29.058Z,2.40
2018-09-07T13:33:58.372Z,2.70
2018-09-07T13:36:25.621Z,2.30
2018-09-07T13:38:52.770Z,2.70
2018-09-07T13:41:21.583Z,2.93
2018-09-07T13:43:48.742Z,2.60
2018-09-07T13:46:15.904Z,2.80
2018-09-07T13:48:43.055Z,2.43
2018-09-07T13:51:10.191Z,3.13
2018-09-07T13:53:37.454Z,2.77
2018-09-07T13:56:04.606Z,2.63
2018-09-07T13:58:31.782Z,2.00
2018-09-07T14:00:58.933Z,2.80
2018-09-07T14:03:26.123Z,2.50
2018-09-07T14:05:53.327Z,2.70
2018-09-07T14:08:20.555Z,3.20
2018-09-07T14:10:47.782Z,2.87
2018-09-07T14:13:15.051Z,2.40
2018-09-07T14:15:42.347Z,2.37
2018-09-07T14:18:09.460Z,2.40
2018-09-07T14:20:36.769Z,2.73
2018-09-07T14:23:04.099Z,2.60
2018-09-07T14:25:31.245Z,2.80
2018-09-07T14:27:58.433Z,3.30
2018-09-07T14:30:25.692Z,3.33
2018-09-07T14:32:52.849Z,3.03
2018-09-07T14:35:19.978Z,3.30
2018-09-07T14:37:47.174Z,2.70
2018-09-07T14:40:14.326Z,2.90
2018-09-07T14:42:41.674Z,5.53
2018-09-07T14:45:08.913Z,2.90
2018-09-07T14:47:36.158Z,3.23
2018-09-07T14:50:04.177Z,3.60
2018-09-07T14:52:31.371Z,3.20
2018-09-07T14:54:58.564Z,3.63
2018-09-07T14:57:25.755Z,3.50
2018-09-07T14:59:55.054Z,3.30
2018-09-07T15:02:22.163Z,3.60
2018-09-07T15:04:49.321Z,3.37
2018-09-07T15:07:16.470Z,3.20
2018-09-07T15:09:43.652Z,3.53
2018-09-07T15:12:10.865Z,2.90
2018-09-07T15:14:37.994Z,3.80
2018-09-07T15:17:05.111Z,3.70
2018-09-07T15:19:32.448Z,3.37
2018-09-07T15:22:00.070Z,3.50
2018-09-07T15:24:27.233Z,3.40
2018-09-07T15:26:54.357Z,3.23
2018-09-07T15:29:21.503Z,2.90
2018-09-07T15:31:48.649Z,2.93
2018-09-07T15:34:15.820Z,2.70
2018-09-07T15:36:43.024Z,3.03
2018-09-07T15:39:10.663Z,3.30
2018-09-07T15:41:37.998Z,3.10
2018-09-07T15:44:05.423Z,3.20
2018-09-07T15:46:32.607Z,3.27
2018-09-07T15:48:59.734Z,3.50
2018-09-07T15:51:26.899Z,3.60
2018-09-07T15:53:54.030Z,3.83
2018-09-07T15:56:21.158Z,3.60
2018-09-07T15:58:48.417Z,3.37
2018-09-07T16:01:15.535Z,3.13
2018-09-07T16:03:42.786Z,3.23
2018-09-07T16:06:11.554Z,3.00
2018-09-07T16:08:39.794Z,3.27
2018-09-07T16:11:07.197Z,3.20
2018-09-07T16:13:34.449Z,3.87
2018-09-07T16:16:01.631Z,3.20
2018-09-07T16:18:28.799Z,3.00
2018-09-07T16:21:00.564Z,3.80
2018-09-07T16:23:27.860Z,3.60
2018-09-07T16:25:57.503Z,3.10
2018-09-07T16:28:26.407Z,3.23
2018-09-07T16:30:53.662Z,3.00
2018-09-07T16:33:20.885Z,3.20
2018-09-07T16:35:48.139Z,3.40
2018-09-07T16:38:15.386Z,3.40
2018-09-07T16:40:42.527Z,3.30
2018-09-07T16:43:09.717Z,3.60
2018-09-07T16:45:36.895Z,4.83
2018-09-07T16:48:04.114Z,27.00
2018-09-07T16:50:31.271Z,45.90
2018-09-07T16:52:58.450Z,26.30
2018-09-07T16:55:25.602Z,17.43
2018-09-07T16:57:52.819Z,30.17
2018-09-07T17:00:20.046Z,4.93
2018-09-07T17:02:47.253Z,18.20
2018-09-07T17:05:14.432Z,40.63
2018-09-07T17:07:41.680Z,32.37
2018-09-07T17:10:08.830Z,4.43
2018-09-07T17:12:36.122Z,25.73
2018-09-07T17:15:03.306Z,5.77
2018-09-07T17:17:30.506Z,5.63
2018-09-07T17:19:57.747Z,3.60
2018-09-07T17:22:24.885Z,5.20
2018-09-07T17:24:52.973Z,6.90
2018-09-07T17:27:20.215Z,5.07
2018-09-07T17:29:47.391Z,4.60
2018-09-07T17:32:14.572Z,3.97
2018-09-07T17:34:41.729Z,4.50
2018-09-07T17:37:08.929Z,3.70
2018-09-07T17:39:36.212Z,4.80
2018-09-07T17:42:03.595Z,3.83
2018-09-07T17:44:30.847Z,3.50
2018-09-07T17:46:58.058Z,3.47
2018-09-07T17:49:25.225Z,3.40
2018-09-07T17:51:52.376Z,3.07
2018-09-07T17:54:19.596Z,3.30
2018-09-07T17:56:46.847Z,2.80
2018-09-07T17:59:14.085Z,2.50
2018-09-07T18:01:41.364Z,2.23
2018-09-07T18:04:08.654Z,2.60
2018-09-07T18:06:35.963Z,2.10
2018-09-07T18:09:05.053Z,2.20
2018-09-07T18:11:33.025Z,1.63
2018-09-07T18:14:00.372Z,1.90
2018-09-07T18:16:27.793Z,1.93
2018-09-07T18:18:54.991Z,2.57
2018-09-07T18:21:22.251Z,2.40
2018-09-07T18:23:49.510Z,3.00
2018-09-07T18:26:16.853Z,3.00
2018-09-07T18:28:45.203Z,2.90
2018-09-07T18:31:12.586Z,2.90
2018-09-07T18:33:39.814Z,2.37
2018-09-07T18:36:07.571Z,2.30
2018-09-07T18:38:34.407Z,2.90
2018-09-07T18:41:02.413Z,3.37
2018-09-07T18:43:30.046Z,2.33
2018-09-07T18:45:57.270Z,3.00
2018-09-07T18:48:24.483Z,3.10
2018-09-07T18:50:51.815Z,3.00
2018-09-07T18:53:19.101Z,3.10
2018-09-07T18:55:46.688Z,3.10
2018-09-07T18:58:13.944Z,3.20
2018-09-07T19:00:42.054Z,3.20
2018-09-07T19:03:09.476Z,3.60
2018-09-07T19:05:36.637Z,3.13
2018-09-07T19:13:03.542Z,3.53
2018-09-07T19:15:30.676Z,3.20
2018-09-07T19:17:57.967Z,3.03
2018-09-07T19:20:25.118Z,3.40
2018-09-07T19:22:52.590Z,3.47
2018-09-07T19:25:19.710Z,3.50
2018-09-07T19:27:48.137Z,3.93
2018-09-07T19:30:15.323Z,3.47
2018-09-07T19:32:42.551Z,3.13
2018-09-07T19:35:09.771Z,2.90
2018-09-07T19:37:37.015Z,3.10
2018-09-07T19:40:04.857Z,3.20
2018-09-07T19:42:32.055Z,3.40
2018-09-07T19:44:59.353Z,3.30
2018-09-07T19:47:26.506Z,3.60
2018-09-07T19:49:53.669Z,3.90
2018-09-07T19:52:20.805Z,3.40
2018-09-07T19:54:48.361Z,3.57
2018-09-07T19:57:16.409Z,4.17
2018-09-07T19:59:43.697Z,3.87
2018-09-07T20:02:10.919Z,4.17
2018-09-07T20:04:38.531Z,3.70
2018-09-07T20:07:06.612Z,3.70
2018-09-07T20:09:33.914Z,3.43
2018-09-07T20:12:01.202Z,7.43
2018-09-07T20:14:28.359Z,4.33
2018-09-07T20:16:55.551Z,3.73
2018-09-07T20:19:22.738Z,3.60
2018-09-07T20:21:50.353Z,3.73
2018-09-07T20:24:17.771Z,3.83
2018-09-07T20:26:44.972Z,3.93
2018-09-07T20:29:12.216Z,3.77
2018-09-07T20:31:40.184Z,4.87
2018-09-07T20:34:08.027Z,5.43
2018-09-07T20:36:36.369Z,4.50
2018-09-07T20:39:05.115Z,3.70
2018-09-07T20:41:32.245Z,4.37
2018-09-07T20:43:59.487Z,3.73
2018-09-07T20:46:26.646Z,4.63
2018-09-07T20:48:53.777Z,3.93
2018-09-07T20:51:21.098Z,3.73
2018-09-07T20:53:48.371Z,4.30
2018-09-07T20:56:15.997Z,4.30
2018-09-07T20:58:43.417Z,3.97
2018-09-07T21:01:11.576Z,4.10
2018-09-07T21:03:38.997Z,4.70
2018-09-07T21:06:09.979Z,4.00
2018-09-07T21:08:39.679Z,4.67
2018-09-07T21:11:07.739Z,4.50
2018-09-07T21:13:34.990Z,4.50
2018-09-07T21:16:02.503Z,4.73
2018-09-07T21:18:29.908Z,4.40
2018-09-07T21:20:57.069Z,4.23
2018-09-07T21:23:24.283Z,5.20
2018-09-07T21:25:51.541Z,4.87
2018-09-07T21:28:18.686Z,4.83
2018-09-07T21:30:45.882Z,6.00
2018-09-07T21:33:13.038Z,4.57
2018-09-07T21:35:40.151Z,4.70
2018-09-07T21:38:07.297Z,6.33
2018-09-07T21:40:34.417Z,4.80
2018-09-07T21:43:01.560Z,4.93
2018-09-07T21:45:28.682Z,5.30
2018-09-07T21:47:55.821Z,5.03
2018-09-07T21:50:22.977Z,4.90
2018-09-07T21:52:50.151Z,5.00
2018-09-07T21:55:17.305Z,4.83
2018-09-07T21:57:44.583Z,5.70
2018-09-07T22:00:11.990Z,4.60
2018-09-07T22:02:39.143Z,4.53
2018-09-07T22:05:06.329Z,4.63
2018-09-07T22:07:39.343Z,4.70
2018-09-07T22:10:06.495Z,5.30
2018-09-07T22:12:33.644Z,4.97
2018-09-07T22:15:00.774Z,4.97
2018-09-07T22:17:27.874Z,5.50
2018-09-07T22:19:55.102Z,7.97
2018-09-07T22:22:22.273Z,6.90
2018-09-07T22:24:49.472Z,5.80
2018-09-07T22:27:16.594Z,6.37
2018-09-07T22:29:45.715Z,6.93
2018-09-07T22:32:14.718Z,5.97
2018-09-07T22:34:41.921Z,6.10
2018-09-07T22:37:09.144Z,5.30
2018-09-07T22:39:36.413Z,7.57
2018-09-07T22:42:03.718Z,5.30
2018-09-07T22:44:30.835Z,4.77
2018-09-07T22:46:58.186Z,5.40
2018-09-07T22:49:25.344Z,4.80
2018-09-07T22:51:52.566Z,4.80
2018-09-07T22:54:19.674Z,5.30
2018-09-07T22:56:46.818Z,4.70
2018-09-07T22:59:14.062Z,5.50
2018-09-07T23:01:41.224Z,7.17
2018-09-07T23:04:08.362Z,5.67
2018-09-07T23:06:41.417Z,5.40
2018-09-07T23:09:08.936Z,4.83
2018-09-07T23:11:36.906Z,4.80
2018-09-07T23:14:04.106Z,4.67
2018-09-07T23:16:31.353Z,5.23
2018-09-07T23:18:58.581Z,5.10
2018-09-07T23:21:25.759Z,5.90
2018-09-07T23:23:53.769Z,5.43
2018-09-07T23:26:20.989Z,6.20
2018-09-07T23:28:48.158Z,5.00
2018-09-07T23:31:15.453Z,5.03
2018-09-07T23:33:42.734Z,5.63
2018-09-07T23:36:09.939Z,5.80
2018-09-07T23:38:37.138Z,5.10
2018-09-07T23:41:04.309Z,4.70
2018-09-07T23:43:31.612Z,5.17
2018-09-07T23:45:58.777Z,5.03
2018-09-07T23:48:25.913Z,4.93
2018-09-07T23:50:53.063Z,3.90
2018-09-07T23:53:20.238Z,4.90
2018-09-07T23:55:47.436Z,4.33
2018-09-07T23:58:14.625Z,4.50
